<?xml version="1.0" encoding="UTF-8" standalone="no" ?>
<gpx xmlns="http://www.topografix.com/GPX/1/1" xmlns:xsi="http://www.w3.org/2001/XMLSchema-instance" xsi:schemaLocation="http://www.topografix.com/GPX/1/1 http://www.topografix.com/GPX/1/1/gpx.xsd" version="1.1" creator="VisuGPX - https://www.visugpx.com">
  <metadata>
    <name>St remy 4 ° trmestre afv 2018</name>
    <desc><![CDATA[depart de et arrivée st remy les chevreuses 
]]></desc>
  </metadata>
  <trk>
    <name><![CDATA[20180609093132-1utsK]]></name>
    <trkseg>
      <trkpt lat="48.70251" lon="2.06966">
        <ele>80</ele>
      </trkpt>
      <trkpt lat="48.70108" lon="2.07142">
        <ele>93</ele>
      </trkpt>
      <trkpt lat="48.7003" lon="2.07552">
        <ele>112</ele>
      </trkpt>
      <trkpt lat="48.70028" lon="2.0777">
        <ele>121</ele>
      </trkpt>
      <trkpt lat="48.69994" lon="2.07988">
        <ele>115</ele>
      </trkpt>
      <trkpt lat="48.69784" lon="2.0839">
        <ele>127</ele>
      </trkpt>
      <trkpt lat="48.69623" lon="2.08532">
        <ele>142</ele>
      </trkpt>
      <trkpt lat="48.6958" lon="2.08552">
        <ele>146</ele>
      </trkpt>
      <trkpt lat="48.69511" lon="2.08519">
        <ele>152</ele>
      </trkpt>
      <trkpt lat="48.69457" lon="2.08563">
        <ele>156</ele>
      </trkpt>
      <trkpt lat="48.69363" lon="2.08527">
        <ele>158</ele>
      </trkpt>
      <trkpt lat="48.69288" lon="2.08787">
        <ele>160</ele>
      </trkpt>
      <trkpt lat="48.68892" lon="2.08393">
        <ele>165</ele>
      </trkpt>
      <trkpt lat="48.68792" lon="2.08455">
        <ele>166</ele>
      </trkpt>
      <trkpt lat="48.68403" lon="2.08327">
        <ele>168</ele>
      </trkpt>
      <trkpt lat="48.68304" lon="2.08117">
        <ele>172</ele>
      </trkpt>
      <trkpt lat="48.6825" lon="2.07834">
        <ele>163</ele>
      </trkpt>
      <trkpt lat="48.68116" lon="2.07525">
        <ele>155</ele>
      </trkpt>
      <trkpt lat="48.67974" lon="2.07431">
        <ele>158</ele>
      </trkpt>
      <trkpt lat="48.68022" lon="2.07209">
        <ele>159</ele>
      </trkpt>
      <trkpt lat="48.68017" lon="2.07161">
        <ele>157</ele>
      </trkpt>
      <trkpt lat="48.67844" lon="2.07161">
        <ele>159</ele>
      </trkpt>
      <trkpt lat="48.67783" lon="2.07136">
        <ele>160</ele>
      </trkpt>
      <trkpt lat="48.6767" lon="2.07003">
        <ele>161</ele>
      </trkpt>
      <trkpt lat="48.6759" lon="2.06979">
        <ele>163</ele>
      </trkpt>
      <trkpt lat="48.67546" lon="2.07063">
        <ele>166</ele>
      </trkpt>
      <trkpt lat="48.67298" lon="2.06886">
        <ele>173</ele>
      </trkpt>
      <trkpt lat="48.67202" lon="2.06657">
        <ele>169</ele>
      </trkpt>
      <trkpt lat="48.67103" lon="2.06479">
        <ele>164</ele>
      </trkpt>
      <trkpt lat="48.67104" lon="2.06229">
        <ele>166</ele>
      </trkpt>
      <trkpt lat="48.67111" lon="2.06042">
        <ele>168</ele>
      </trkpt>
      <trkpt lat="48.67079" lon="2.0583">
        <ele>171</ele>
      </trkpt>
      <trkpt lat="48.67106" lon="2.05563">
        <ele>175</ele>
      </trkpt>
      <trkpt lat="48.67116" lon="2.05419">
        <ele>177</ele>
      </trkpt>
      <trkpt lat="48.67091" lon="2.05318">
        <ele>172</ele>
      </trkpt>
      <trkpt lat="48.67245" lon="2.05341">
        <ele>169</ele>
      </trkpt>
      <trkpt lat="48.67373" lon="2.0533">
        <ele>168</ele>
      </trkpt>
      <trkpt lat="48.67575" lon="2.05212">
        <ele>161</ele>
      </trkpt>
      <trkpt lat="48.67758" lon="2.05234">
        <ele>157</ele>
        <time>2018-06-09T08:27:46 02:00</time>
      </trkpt>
      <trkpt lat="48.67803" lon="2.0526">
        <ele>155</ele>
        <time>2018-06-09T08:27:51 02:00</time>
      </trkpt>
      <trkpt lat="48.6786" lon="2.05298">
        <ele>159</ele>
        <time>2018-06-09T08:27:56 02:00</time>
      </trkpt>
      <trkpt lat="48.67911" lon="2.05337">
        <ele>158</ele>
        <time>2018-06-09T08:28:01 02:00</time>
      </trkpt>
      <trkpt lat="48.67973" lon="2.05388">
        <ele>157</ele>
        <time>2018-06-09T08:28:06 02:00</time>
      </trkpt>
      <trkpt lat="48.68024" lon="2.05425">
        <ele>154</ele>
        <time>2018-06-09T08:28:11 02:00</time>
      </trkpt>
      <trkpt lat="48.68074" lon="2.05459">
        <ele>152</ele>
        <time>2018-06-09T08:28:16 02:00</time>
      </trkpt>
      <trkpt lat="48.68122" lon="2.05494">
        <ele>153</ele>
        <time>2018-06-09T08:28:21 02:00</time>
      </trkpt>
      <trkpt lat="48.68173" lon="2.05549">
        <ele>150</ele>
        <time>2018-06-09T08:28:26 02:00</time>
      </trkpt>
      <trkpt lat="48.68229" lon="2.05635">
        <ele>146</ele>
        <time>2018-06-09T08:28:31 02:00</time>
      </trkpt>
      <trkpt lat="48.68265" lon="2.05734">
        <ele>146</ele>
        <time>2018-06-09T08:28:36 02:00</time>
      </trkpt>
      <trkpt lat="48.68302" lon="2.05841">
        <ele>140</ele>
        <time>2018-06-09T08:28:41 02:00</time>
      </trkpt>
      <trkpt lat="48.68334" lon="2.05923">
        <ele>141</ele>
        <time>2018-06-09T08:28:46 02:00</time>
      </trkpt>
      <trkpt lat="48.68349" lon="2.05966">
        <ele>141</ele>
        <time>2018-06-09T08:28:51 02:00</time>
      </trkpt>
      <trkpt lat="48.68367" lon="2.06013">
        <ele>135</ele>
        <time>2018-06-09T08:28:56 02:00</time>
      </trkpt>
      <trkpt lat="48.68391" lon="2.06045">
        <ele>135</ele>
        <time>2018-06-09T08:29:01 02:00</time>
      </trkpt>
      <trkpt lat="48.68418" lon="2.06084">
        <ele>137</ele>
        <time>2018-06-09T08:29:06 02:00</time>
      </trkpt>
      <trkpt lat="48.68473" lon="2.06142">
        <ele>141</ele>
        <time>2018-06-09T08:29:11 02:00</time>
      </trkpt>
      <trkpt lat="48.68517" lon="2.06172">
        <ele>140</ele>
        <time>2018-06-09T08:29:16 02:00</time>
      </trkpt>
      <trkpt lat="48.68574" lon="2.06189">
        <ele>140</ele>
        <time>2018-06-09T08:29:21 02:00</time>
      </trkpt>
      <trkpt lat="48.68635" lon="2.06191">
        <ele>132</ele>
        <time>2018-06-09T08:29:26 02:00</time>
      </trkpt>
      <trkpt lat="48.68697" lon="2.06178">
        <ele>123</ele>
        <time>2018-06-09T08:29:31 02:00</time>
      </trkpt>
      <trkpt lat="48.68775" lon="2.06152">
        <ele>121</ele>
        <time>2018-06-09T08:29:36 02:00</time>
      </trkpt>
      <trkpt lat="48.68834" lon="2.06131">
        <ele>124</ele>
        <time>2018-06-09T08:29:41 02:00</time>
      </trkpt>
      <trkpt lat="48.68915" lon="2.06114">
        <ele>127</ele>
        <time>2018-06-09T08:29:46 02:00</time>
      </trkpt>
      <trkpt lat="48.69007" lon="2.06109">
        <ele>131</ele>
        <time>2018-06-09T08:29:51 02:00</time>
      </trkpt>
      <trkpt lat="48.69074" lon="2.06109">
        <ele>130</ele>
        <time>2018-06-09T08:29:56 02:00</time>
      </trkpt>
      <trkpt lat="48.6916" lon="2.06077">
        <ele>133</ele>
        <time>2018-06-09T08:30:01 02:00</time>
      </trkpt>
      <trkpt lat="48.69261" lon="2.06036">
        <ele>123</ele>
        <time>2018-06-09T08:30:06 02:00</time>
      </trkpt>
      <trkpt lat="48.69344" lon="2.05989">
        <ele>120</ele>
        <time>2018-06-09T08:30:11 02:00</time>
      </trkpt>
      <trkpt lat="48.69401" lon="2.05955">
        <ele>119</ele>
        <time>2018-06-09T08:30:16 02:00</time>
      </trkpt>
      <trkpt lat="48.69452" lon="2.05923">
        <ele>113</ele>
        <time>2018-06-09T08:30:21 02:00</time>
      </trkpt>
      <trkpt lat="48.69498" lon="2.05909">
        <ele>114</ele>
        <time>2018-06-09T08:30:26 02:00</time>
      </trkpt>
      <trkpt lat="48.69555" lon="2.05907">
        <ele>115</ele>
        <time>2018-06-09T08:30:31 02:00</time>
      </trkpt>
      <trkpt lat="48.69594" lon="2.05909">
        <ele>115</ele>
        <time>2018-06-09T08:30:36 02:00</time>
      </trkpt>
      <trkpt lat="48.69644" lon="2.05922">
        <ele>112</ele>
        <time>2018-06-09T08:30:41 02:00</time>
      </trkpt>
      <trkpt lat="48.697" lon="2.05943">
        <ele>111</ele>
        <time>2018-06-09T08:30:46 02:00</time>
      </trkpt>
      <trkpt lat="48.69743" lon="2.05963">
        <ele>110</ele>
        <time>2018-06-09T08:30:51 02:00</time>
      </trkpt>
      <trkpt lat="48.69775" lon="2.05982">
        <ele>108</ele>
        <time>2018-06-09T08:30:56 02:00</time>
      </trkpt>
      <trkpt lat="48.69828" lon="2.0601">
        <ele>104</ele>
        <time>2018-06-09T08:31:01 02:00</time>
      </trkpt>
      <trkpt lat="48.69866" lon="2.06038">
        <ele>101</ele>
        <time>2018-06-09T08:31:06 02:00</time>
      </trkpt>
      <trkpt lat="48.69916" lon="2.06083">
        <ele>99</ele>
        <time>2018-06-09T08:31:11 02:00</time>
      </trkpt>
      <trkpt lat="48.69962" lon="2.06124">
        <ele>95</ele>
        <time>2018-06-09T08:31:16 02:00</time>
      </trkpt>
      <trkpt lat="48.70012" lon="2.06186">
        <ele>90</ele>
        <time>2018-06-09T08:31:21 02:00</time>
      </trkpt>
      <trkpt lat="48.70059" lon="2.0625">
        <ele>89</ele>
        <time>2018-06-09T08:31:26 02:00</time>
      </trkpt>
      <trkpt lat="48.70111" lon="2.06349">
        <ele>86</ele>
        <time>2018-06-09T08:31:31 02:00</time>
      </trkpt>
      <trkpt lat="48.70139" lon="2.06411">
        <ele>86</ele>
        <time>2018-06-09T08:31:36 02:00</time>
      </trkpt>
      <trkpt lat="48.70178" lon="2.06501">
        <ele>83</ele>
        <time>2018-06-09T08:31:41 02:00</time>
      </trkpt>
      <trkpt lat="48.70203" lon="2.066">
        <ele>79</ele>
        <time>2018-06-09T08:31:46 02:00</time>
      </trkpt>
      <trkpt lat="48.70229" lon="2.06688">
        <ele>79</ele>
        <time>2018-06-09T08:31:51 02:00</time>
      </trkpt>
      <trkpt lat="48.70244" lon="2.0678">
        <ele>79</ele>
        <time>2018-06-09T08:31:56 02:00</time>
      </trkpt>
      <trkpt lat="48.70251" lon="2.06831">
        <ele>79</ele>
        <time>2018-06-09T08:32:01 02:00</time>
      </trkpt>
      <trkpt lat="48.70258" lon="2.069">
        <ele>79</ele>
        <time>2018-06-09T08:32:06 02:00</time>
      </trkpt>
      <trkpt lat="48.70261" lon="2.06964">
        <ele>80</ele>
        <time>2018-06-09T08:32:11 02:00</time>
      </trkpt>
      <trkpt lat="48.70278" lon="2.06961">
        <ele>79</ele>
        <time>2018-06-09T08:32:16 02:00</time>
      </trkpt>
      <trkpt lat="48.70285" lon="2.07036">
        <ele>80</ele>
        <time>2018-06-09T08:32:21 02:00</time>
      </trkpt>
      <trkpt lat="48.7029" lon="2.07092">
        <ele>80</ele>
        <time>2018-06-09T08:32:26 02:00</time>
      </trkpt>
    </trkseg>
  </trk>
</gpx>